sensor_id;sensor_type;location;lat;lon;timestamp;P1;durP1;ratioP1;P2;durP2;ratioP2
36371;SDS011;22398;51.346;12.372;2023-04-03T00:04:28;3.47;;;1.13;;
36371;SDS011;22398;51.346;12.372;2023-04-03T00:09:31;7.22;;;0.90;;
36371;SDS011;22398;51.346;12.372;2023-04-03T00:14:34;4.75;;;1.40;;
36371;SDS011;22398;51.346;12.372;2023-04-03T00:19:39;6.10;;;1.33;;
36371;SDS011;22398;51.346;12.372;2023-04-03T00:24:43;9.37;;;1.50;;
36371;SDS011;22398;51.346;12.372;2023-04-03T00:29:46;2.30;;;0.90;;
36371;SDS011;22398;51.346;12.372;2023-04-03T00:34:51;2.13;;;0.90;;
36371;SDS011;22398;51.346;12.372;2023-04-03T00:39:55;5.50;;;1.00;;
36371;SDS011;22398;51.346;12.372;2023-04-03T00:50:43;4.15;;;1.17;;
36371;SDS011;22398;51.346;12.372;2023-04-03T00:55:48;4.75;;;1.15;;
36371;SDS011;22398;51.346;12.372;2023-04-03T01:06:00;2.20;;;1.15;;
36371;SDS011;22398;51.346;12.372;2023-04-03T01:11:04;4.07;;;1.10;;
36371;SDS011;22398;51.346;12.372;2023-04-03T01:16:08;11.70;;;1.63;;
36371;SDS011;22398;51.346;12.372;2023-04-03T01:21:35;6.05;;;1.50;;
36371;SDS011;22398;51.346;12.372;2023-04-03T01:26:57;4.18;;;1.30;;
36371;SDS011;22398;51.346;12.372;2023-04-03T01:32:02;2.08;;;1.00;;
36371;SDS011;22398;51.346;12.372;2023-04-03T01:37:07;4.18;;;1.05;;
36371;SDS011;22398;51.346;12.372;2023-04-03T01:42:10;6.30;;;1.25;;
36371;SDS011;22398;51.346;12.372;2023-04-03T01:47:18;7.38;;;0.77;;
36371;SDS011;22398;51.346;12.372;2023-04-03T01:52:22;5.38;;;1.10;;
36371;SDS011;22398;51.346;12.372;2023-04-03T01:57:25;3.10;;;1.15;;
36371;SDS011;22398;51.346;12.372;2023-04-03T02:02:30;5.63;;;0.95;;
36371;SDS011;22398;51.346;12.372;2023-04-03T02:07:34;2.65;;;0.75;;
36371;SDS011;22398;51.346;12.372;2023-04-03T02:12:37;4.97;;;1.17;;
36371;SDS011;22398;51.346;12.372;2023-04-03T02:17:42;4.63;;;1.27;;
36371;SDS011;22398;51.346;12.372;2023-04-03T02:22:47;3.10;;;1.05;;
36371;SDS011;22398;51.346;12.372;2023-04-03T02:27:52;5.65;;;1.27;;
36371;SDS011;22398;51.346;12.372;2023-04-03T02:32:56;2.58;;;0.82;;
36371;SDS011;22398;51.346;12.372;2023-04-03T02:43:04;5.00;;;1.02;;
36371;SDS011;22398;51.346;12.372;2023-04-03T02:48:09;5.20;;;1.23;;
36371;SDS011;22398;51.346;12.372;2023-04-03T02:53:13;5.55;;;1.13;;
36371;SDS011;22398;51.346;12.372;2023-04-03T02:58:17;5.93;;;0.85;;
36371;SDS011;22398;51.346;12.372;2023-04-03T03:03:22;4.65;;;1.48;;
36371;SDS011;22398;51.346;12.372;2023-04-03T03:08:26;6.30;;;1.10;;
36371;SDS011;22398;51.346;12.372;2023-04-03T03:13:30;2.95;;;1.27;;
36371;SDS011;22398;51.346;12.372;2023-04-03T03:18:35;1.70;;;0.80;;
36371;SDS011;22398;51.346;12.372;2023-04-03T03:23:39;4.88;;;0.95;;
36371;SDS011;22398;51.346;12.372;2023-04-03T03:28:43;2.70;;;0.90;;
36371;SDS011;22398;51.346;12.372;2023-04-03T03:33:48;6.70;;;1.17;;
36371;SDS011;22398;51.346;12.372;2023-04-03T03:38:53;3.63;;;1.10;;
36371;SDS011;22398;51.346;12.372;2023-04-03T03:43:56;4.93;;;1.35;;
36371;SDS011;22398;51.346;12.372;2023-04-03T03:54:06;4.85;;;1.67;;
36371;SDS011;22398;51.346;12.372;2023-04-03T03:59:11;5.65;;;1.30;;
36371;SDS011;22398;51.346;12.372;2023-04-03T04:04:17;4.07;;;1.50;;
36371;SDS011;22398;51.346;12.372;2023-04-03T04:09:20;7.60;;;2.03;;
36371;SDS011;22398;51.346;12.372;2023-04-03T04:14:24;2.35;;;1.23;;
36371;SDS011;22398;51.346;12.372;2023-04-03T04:19:29;6.20;;;1.52;;
36371;SDS011;22398;51.346;12.372;2023-04-03T04:24:33;12.90;;;1.23;;
36371;SDS011;22398;51.346;12.372;2023-04-03T04:29:38;3.67;;;1.45;;
36371;SDS011;22398;51.346;12.372;2023-04-03T04:34:44;11.65;;;4.55;;
36371;SDS011;22398;51.346;12.372;2023-04-03T04:39:47;12.15;;;5.60;;
36371;SDS011;22398;51.346;12.372;2023-04-03T04:44:50;26.58;;;12.20;;
36371;SDS011;22398;51.346;12.372;2023-04-03T04:49:55;57.08;;;15.10;;
36371;SDS011;22398;51.346;12.372;2023-04-03T05:00:03;23.60;;;7.88;;
36371;SDS011;22398;51.346;12.372;2023-04-03T05:05:09;18.52;;;7.50;;
36371;SDS011;22398;51.346;12.372;2023-04-03T05:10:13;49.65;;;12.57;;
36371;SDS011;22398;51.346;12.372;2023-04-03T05:15:19;23.70;;;9.13;;
36371;SDS011;22398;51.346;12.372;2023-04-03T05:20:24;18.75;;;5.97;;
36371;SDS011;22398;51.346;12.372;2023-04-03T05:25:28;15.63;;;5.82;;
36371;SDS011;22398;51.346;12.372;2023-04-03T05:30:33;30.17;;;10.88;;
36371;SDS011;22398;51.346;12.372;2023-04-03T05:35:39;16.05;;;7.35;;
36371;SDS011;22398;51.346;12.372;2023-04-03T05:40:46;16.52;;;4.15;;
36371;SDS011;22398;51.346;12.372;2023-04-03T05:45:50;9.20;;;4.28;;
36371;SDS011;22398;51.346;12.372;2023-04-03T05:50:58;19.50;;;8.07;;
36371;SDS011;22398;51.346;12.372;2023-04-03T05:56:01;23.53;;;5.80;;
36371;SDS011;22398;51.346;12.372;2023-04-03T06:01:08;11.88;;;3.67;;
36371;SDS011;22398;51.346;12.372;2023-04-03T06:06:15;11.70;;;4.80;;
36371;SDS011;22398;51.346;12.372;2023-04-03T06:11:18;9.95;;;3.17;;
36371;SDS011;22398;51.346;12.372;2023-04-03T06:16:23;19.70;;;4.45;;
36371;SDS011;22398;51.346;12.372;2023-04-03T06:21:28;8.85;;;4.07;;
36371;SDS011;22398;51.346;12.372;2023-04-03T06:26:31;15.65;;;5.82;;
36371;SDS011;22398;51.346;12.372;2023-04-03T06:31:35;22.92;;;9.18;;
36371;SDS011;22398;51.346;12.372;2023-04-03T06:36:40;20.65;;;8.88;;
36371;SDS011;22398;51.346;12.372;2023-04-03T06:41:44;25.27;;;9.20;;
36371;SDS011;22398;51.346;12.372;2023-04-03T06:46:47;18.55;;;7.30;;
36371;SDS011;22398;51.346;12.372;2023-04-03T06:51:52;13.50;;;5.32;;
36371;SDS011;22398;51.346;12.372;2023-04-03T06:56:56;20.15;;;8.63;;
36371;SDS011;22398;51.346;12.372;2023-04-03T07:01:59;13.93;;;6.65;;
36371;SDS011;22398;51.346;12.372;2023-04-03T07:07:04;12.13;;;5.32;;
36371;SDS011;22398;51.346;12.372;2023-04-03T07:12:07;8.43;;;3.30;;
36371;SDS011;22398;51.346;12.372;2023-04-03T07:17:10;9.13;;;2.08;;
36371;SDS011;22398;51.346;12.372;2023-04-03T07:22:15;9.02;;;2.28;;
36371;SDS011;22398;51.346;12.372;2023-04-03T07:27:18;12.15;;;3.53;;
36371;SDS011;22398;51.346;12.372;2023-04-03T07:32:21;7.38;;;1.83;;
36371;SDS011;22398;51.346;12.372;2023-04-03T07:37:26;6.80;;;2.72;;
36371;SDS011;22398;51.346;12.372;2023-04-03T07:42:29;7.70;;;1.90;;
36371;SDS011;22398;51.346;12.372;2023-04-03T07:47:32;10.95;;;2.67;;
36371;SDS011;22398;51.346;12.372;2023-04-03T07:52:37;17.05;;;4.47;;
36371;SDS011;22398;51.346;12.372;2023-04-03T07:57:41;6.53;;;1.58;;
36371;SDS011;22398;51.346;12.372;2023-04-03T08:02:44;4.13;;;1.83;;
36371;SDS011;22398;51.346;12.372;2023-04-03T08:07:53;5.40;;;1.63;;
36371;SDS011;22398;51.346;12.372;2023-04-03T08:12:57;9.38;;;1.85;;
36371;SDS011;22398;51.346;12.372;2023-04-03T08:18:00;9.35;;;1.73;;
36371;SDS011;22398;51.346;12.372;2023-04-03T08:23:07;5.57;;;1.40;;
36371;SDS011;22398;51.346;12.372;2023-04-03T08:28:11;5.05;;;2.33;;
36371;SDS011;22398;51.346;12.372;2023-04-03T08:33:15;3.03;;;1.17;;
36371;SDS011;22398;51.346;12.372;2023-04-03T08:38:20;5.95;;;2.00;;
36371;SDS011;22398;51.346;12.372;2023-04-03T08:43:27;7.45;;;1.17;;
36371;SDS011;22398;51.346;12.372;2023-04-03T08:48:40;12.02;;;3.80;;
36371;SDS011;22398;51.346;12.372;2023-04-03T08:53:48;4.18;;;1.13;;
36371;SDS011;22398;51.346;12.372;2023-04-03T08:58:58;3.38;;;0.80;;
36371;SDS011;22398;51.346;12.372;2023-04-03T09:04:09;2.10;;;0.65;;
36371;SDS011;22398;51.346;12.372;2023-04-03T09:09:18;3.72;;;0.63;;
36371;SDS011;22398;51.346;12.372;2023-04-03T09:14:34;0.60;;;0.45;;
36371;SDS011;22398;51.346;12.372;2023-04-03T09:19:41;2.95;;;1.33;;
36371;SDS011;22398;51.346;12.372;2023-04-03T09:24:57;4.47;;;1.08;;
36371;SDS011;22398;51.346;12.372;2023-04-03T09:30:04;5.55;;;0.98;;
36371;SDS011;22398;51.346;12.372;2023-04-03T09:35:16;1.83;;;0.70;;
36371;SDS011;22398;51.346;12.372;2023-04-03T09:40:38;4.03;;;1.30;;
36371;SDS011;22398;51.346;12.372;2023-04-03T09:45:44;0.63;;;0.40;;
36371;SDS011;22398;51.346;12.372;2023-04-03T09:50:59;2.45;;;0.70;;
36371;SDS011;22398;51.346;12.372;2023-04-03T09:56:18;6.60;;;1.02;;
36371;SDS011;22398;51.346;12.372;2023-04-03T10:01:25;1.58;;;0.70;;
36371;SDS011;22398;51.346;12.372;2023-04-03T10:06:32;7.85;;;1.60;;
36371;SDS011;22398;51.346;12.372;2023-04-03T10:11:38;5.55;;;0.90;;
36371;SDS011;22398;51.346;12.372;2023-04-03T10:17:09;3.17;;;0.80;;
36371;SDS011;22398;51.346;12.372;2023-04-03T10:22:22;3.15;;;0.80;;
36371;SDS011;22398;51.346;12.372;2023-04-03T10:27:44;2.15;;;0.80;;
36371;SDS011;22398;51.346;12.372;2023-04-03T10:32:58;4.88;;;0.75;;
36371;SDS011;22398;51.346;12.372;2023-04-03T10:38:22;6.43;;;0.90;;
36371;SDS011;22398;51.346;12.372;2023-04-03T10:43:36;1.88;;;0.60;;
36371;SDS011;22398;51.346;12.372;2023-04-03T10:48:49;4.38;;;0.88;;
36371;SDS011;22398;51.346;12.372;2023-04-03T10:54:04;2.78;;;1.25;;
36371;SDS011;22398;51.346;12.372;2023-04-03T10:59:23;2.60;;;1.38;;
36371;SDS011;22398;51.346;12.372;2023-04-03T11:04:31;7.55;;;1.40;;
36371;SDS011;22398;51.346;12.372;2023-04-03T11:09:39;7.22;;;1.33;;
36371;SDS011;22398;51.346;12.372;2023-04-03T11:14:46;7.60;;;1.00;;
36371;SDS011;22398;51.346;12.372;2023-04-03T11:19:57;6.43;;;1.25;;
36371;SDS011;22398;51.346;12.372;2023-04-03T11:25:14;1.98;;;1.27;;
36371;SDS011;22398;51.346;12.372;2023-04-03T11:30:25;5.22;;;1.42;;
36371;SDS011;22398;51.346;12.372;2023-04-03T11:35:33;3.35;;;1.42;;
36371;SDS011;22398;51.346;12.372;2023-04-03T11:40:38;6.40;;;1.27;;
36371;SDS011;22398;51.346;12.372;2023-04-03T11:45:50;6.45;;;0.90;;
36371;SDS011;22398;51.346;12.372;2023-04-03T11:50:57;2.25;;;0.93;;
36371;SDS011;22398;51.346;12.372;2023-04-03T12:01:44;5.35;;;1.00;;
36371;SDS011;22398;51.346;12.372;2023-04-03T12:06:51;7.03;;;0.98;;
36371;SDS011;22398;51.346;12.372;2023-04-03T12:12:22;2.70;;;1.10;;
36371;SDS011;22398;51.346;12.372;2023-04-03T12:17:32;3.60;;;1.00;;
36371;SDS011;22398;51.346;12.372;2023-04-03T12:22:36;4.75;;;1.23;;
36371;SDS011;22398;51.346;12.372;2023-04-03T12:27:40;1.70;;;0.80;;
36371;SDS011;22398;51.346;12.372;2023-04-03T12:32:58;1.80;;;0.70;;
36371;SDS011;22398;51.346;12.372;2023-04-03T12:43:59;2.65;;;0.93;;
36371;SDS011;22398;51.346;12.372;2023-04-03T12:49:18;1.90;;;0.80;;
36371;SDS011;22398;51.346;12.372;2023-04-03T12:54:30;5.40;;;1.17;;
36371;SDS011;22398;51.346;12.372;2023-04-03T12:59:37;2.95;;;0.95;;
36371;SDS011;22398;51.346;12.372;2023-04-03T13:04:44;3.97;;;1.20;;
36371;SDS011;22398;51.346;12.372;2023-04-03T13:09:54;3.28;;;0.80;;
36371;SDS011;22398;51.346;12.372;2023-04-03T13:15:01;1.52;;;0.80;;
36371;SDS011;22398;51.346;12.372;2023-04-03T13:20:20;3.22;;;1.25;;
36371;SDS011;22398;51.346;12.372;2023-04-03T13:25:28;1.25;;;0.85;;
36371;SDS011;22398;51.346;12.372;2023-04-03T13:30:34;1.65;;;0.85;;
36371;SDS011;22398;51.346;12.372;2023-04-03T13:35:42;2.88;;;1.02;;
36371;SDS011;22398;51.346;12.372;2023-04-03T13:40:47;0.93;;;0.68;;
36371;SDS011;22398;51.346;12.372;2023-04-03T13:45:59;5.13;;;1.05;;
36371;SDS011;22398;51.346;12.372;2023-04-03T13:51:18;6.70;;;1.08;;
36371;SDS011;22398;51.346;12.372;2023-04-03T13:56:25;3.05;;;0.77;;
36371;SDS011;22398;51.346;12.372;2023-04-03T14:01:37;3.65;;;1.20;;
36371;SDS011;22398;51.346;12.372;2023-04-03T14:06:45;3.50;;;1.20;;
36371;SDS011;22398;51.346;12.372;2023-04-03T14:11:50;1.85;;;0.90;;
36371;SDS011;22398;51.346;12.372;2023-04-03T14:16:57;4.93;;;0.93;;
36371;SDS011;22398;51.346;12.372;2023-04-03T14:27:17;4.72;;;1.05;;
36371;SDS011;22398;51.346;12.372;2023-04-03T14:32:23;6.95;;;1.20;;
36371;SDS011;22398;51.346;12.372;2023-04-03T14:37:29;3.83;;;1.30;;
36371;SDS011;22398;51.346;12.372;2023-04-03T14:42:34;5.18;;;0.80;;
36371;SDS011;22398;51.346;12.372;2023-04-03T14:52:47;1.58;;;0.73;;
36371;SDS011;22398;51.346;12.372;2023-04-03T14:57:52;4.15;;;0.82;;
36371;SDS011;22398;51.346;12.372;2023-04-03T15:02:56;2.45;;;0.65;;
36371;SDS011;22398;51.346;12.372;2023-04-03T15:08:01;2.38;;;0.80;;
36371;SDS011;22398;51.346;12.372;2023-04-03T15:13:04;1.30;;;0.60;;
36371;SDS011;22398;51.346;12.372;2023-04-03T15:18:10;3.72;;;1.00;;
36371;SDS011;22398;51.346;12.372;2023-04-03T15:23:19;2.80;;;1.10;;
36371;SDS011;22398;51.346;12.372;2023-04-03T15:28:28;3.05;;;1.10;;
36371;SDS011;22398;51.346;12.372;2023-04-03T15:33:34;5.80;;;1.60;;
36371;SDS011;22398;51.346;12.372;2023-04-03T15:38:39;2.80;;;1.00;;
36371;SDS011;22398;51.346;12.372;2023-04-03T15:43:43;2.90;;;1.02;;
36371;SDS011;22398;51.346;12.372;2023-04-03T15:48:47;4.50;;;1.23;;
36371;SDS011;22398;51.346;12.372;2023-04-03T15:53:52;1.75;;;1.00;;
36371;SDS011;22398;51.346;12.372;2023-04-03T15:58:56;3.58;;;0.90;;
36371;SDS011;22398;51.346;12.372;2023-04-03T16:04:00;3.47;;;0.98;;
36371;SDS011;22398;51.346;12.372;2023-04-03T16:09:05;3.60;;;0.93;;
36371;SDS011;22398;51.346;12.372;2023-04-03T16:14:10;6.00;;;1.80;;
36371;SDS011;22398;51.346;12.372;2023-04-03T16:19:13;4.35;;;1.00;;
36371;SDS011;22398;51.346;12.372;2023-04-03T16:24:18;2.90;;;1.10;;
36371;SDS011;22398;51.346;12.372;2023-04-03T16:29:22;2.92;;;1.10;;
36371;SDS011;22398;51.346;12.372;2023-04-03T16:34:26;3.38;;;1.58;;
36371;SDS011;22398;51.346;12.372;2023-04-03T16:39:33;3.53;;;1.27;;
36371;SDS011;22398;51.346;12.372;2023-04-03T16:44:37;3.15;;;1.20;;
36371;SDS011;22398;51.346;12.372;2023-04-03T16:49:41;2.55;;;1.40;;
36371;SDS011;22398;51.346;12.372;2023-04-03T16:54:47;14.13;;;1.92;;
36371;SDS011;22398;51.346;12.372;2023-04-03T16:59:50;4.20;;;1.20;;
36371;SDS011;22398;51.346;12.372;2023-04-03T17:04:54;3.13;;;1.20;;
36371;SDS011;22398;51.346;12.372;2023-04-03T17:09:59;4.47;;;1.10;;
36371;SDS011;22398;51.346;12.372;2023-04-03T17:15:03;4.00;;;1.23;;
36371;SDS011;22398;51.346;12.372;2023-04-03T17:20:07;1.77;;;0.93;;
36371;SDS011;22398;51.346;12.372;2023-04-03T17:25:13;2.83;;;1.20;;
36371;SDS011;22398;51.346;12.372;2023-04-03T17:30:17;2.95;;;0.95;;
36371;SDS011;22398;51.346;12.372;2023-04-03T17:35:21;7.20;;;1.70;;
36371;SDS011;22398;51.346;12.372;2023-04-03T17:40:26;7.07;;;1.55;;
36371;SDS011;22398;51.346;12.372;2023-04-03T17:45:30;4.13;;;1.65;;
36371;SDS011;22398;51.346;12.372;2023-04-03T17:50:35;5.22;;;1.85;;
36371;SDS011;22398;51.346;12.372;2023-04-03T17:55:41;5.05;;;2.00;;
36371;SDS011;22398;51.346;12.372;2023-04-03T18:00:44;5.00;;;1.77;;
36371;SDS011;22398;51.346;12.372;2023-04-03T18:05:47;5.68;;;1.88;;
36371;SDS011;22398;51.346;12.372;2023-04-03T18:10:57;4.35;;;1.60;;
36371;SDS011;22398;51.346;12.372;2023-04-03T18:16:00;5.53;;;1.60;;
36371;SDS011;22398;51.346;12.372;2023-04-03T18:21:05;3.83;;;1.42;;
36371;SDS011;22398;51.346;12.372;2023-04-03T18:26:13;2.20;;;1.00;;
36371;SDS011;22398;51.346;12.372;2023-04-03T18:31:21;4.53;;;1.30;;
36371;SDS011;22398;51.346;12.372;2023-04-03T18:36:26;2.55;;;1.13;;
36371;SDS011;22398;51.346;12.372;2023-04-03T18:41:32;2.67;;;1.17;;
36371;SDS011;22398;51.346;12.372;2023-04-03T18:46:38;2.22;;;1.20;;
36371;SDS011;22398;51.346;12.372;2023-04-03T18:51:42;3.42;;;1.42;;
36371;SDS011;22398;51.346;12.372;2023-04-03T18:56:47;5.10;;;1.25;;
36371;SDS011;22398;51.346;12.372;2023-04-03T19:01:50;1.77;;;1.10;;
36371;SDS011;22398;51.346;12.372;2023-04-03T19:06:54;8.35;;;1.27;;
36371;SDS011;22398;51.346;12.372;2023-04-03T19:11:59;3.10;;;1.27;;
36371;SDS011;22398;51.346;12.372;2023-04-03T19:17:03;2.00;;;0.73;;
36371;SDS011;22398;51.346;12.372;2023-04-03T19:22:08;2.17;;;1.00;;
36371;SDS011;22398;51.346;12.372;2023-04-03T19:27:13;7.22;;;1.33;;
36371;SDS011;22398;51.346;12.372;2023-04-03T19:32:17;1.55;;;1.00;;
36371;SDS011;22398;51.346;12.372;2023-04-03T19:37:21;2.80;;;1.25;;
36371;SDS011;22398;51.346;12.372;2023-04-03T19:42:27;4.28;;;1.48;;
36371;SDS011;22398;51.346;12.372;2023-04-03T19:47:35;3.58;;;1.60;;
36371;SDS011;22398;51.346;12.372;2023-04-03T19:52:38;8.00;;;1.40;;
36371;SDS011;22398;51.346;12.372;2023-04-03T19:57:44;3.47;;;1.30;;
36371;SDS011;22398;51.346;12.372;2023-04-03T20:02:48;4.68;;;1.48;;
36371;SDS011;22398;51.346;12.372;2023-04-03T20:07:52;4.38;;;1.25;;
36371;SDS011;22398;51.346;12.372;2023-04-03T20:12:58;4.50;;;1.27;;
36371;SDS011;22398;51.346;12.372;2023-04-03T20:18:02;5.38;;;0.98;;
36371;SDS011;22398;51.346;12.372;2023-04-03T20:23:06;3.47;;;1.40;;
36371;SDS011;22398;51.346;12.372;2023-04-03T20:33:17;3.58;;;1.00;;
36371;SDS011;22398;51.346;12.372;2023-04-03T20:38:22;2.55;;;1.20;;
36371;SDS011;22398;51.346;12.372;2023-04-03T20:43:27;3.72;;;1.10;;
36371;SDS011;22398;51.346;12.372;2023-04-03T20:48:30;3.80;;;1.50;;
36371;SDS011;22398;51.346;12.372;2023-04-03T20:53:34;7.88;;;0.93;;
36371;SDS011;22398;51.346;12.372;2023-04-03T20:58:39;3.17;;;1.10;;
36371;SDS011;22398;51.346;12.372;2023-04-03T21:03:44;3.40;;;1.55;;
36371;SDS011;22398;51.346;12.372;2023-04-03T21:20:12;3.45;;;1.08;;
36371;SDS011;22398;51.346;12.372;2023-04-03T21:25:15;3.83;;;1.23;;
36371;SDS011;22398;51.346;12.372;2023-04-03T21:30:19;3.15;;;1.00;;
36371;SDS011;22398;51.346;12.372;2023-04-03T21:35:24;3.22;;;1.10;;
36371;SDS011;22398;51.346;12.372;2023-04-03T21:40:27;2.67;;;1.67;;
36371;SDS011;22398;51.346;12.372;2023-04-03T21:45:32;40.37;;;23.50;;
36371;SDS011;22398;51.346;12.372;2023-04-03T21:50:37;15.95;;;7.70;;
36371;SDS011;22398;51.346;12.372;2023-04-03T21:55:41;46.63;;;15.30;;
36371;SDS011;22398;51.346;12.372;2023-04-03T22:00:44;8.30;;;1.88;;
36371;SDS011;22398;51.346;12.372;2023-04-03T22:05:49;3.65;;;1.10;;
36371;SDS011;22398;51.346;12.372;2023-04-03T22:10:58;5.25;;;1.05;;
36371;SDS011;22398;51.346;12.372;2023-04-03T22:16:03;2.83;;;0.98;;
36371;SDS011;22398;51.346;12.372;2023-04-03T22:21:08;4.20;;;1.40;;
36371;SDS011;22398;51.346;12.372;2023-04-03T22:26:12;6.07;;;1.30;;
36371;SDS011;22398;51.346;12.372;2023-04-03T22:31:16;3.58;;;1.00;;
36371;SDS011;22398;51.346;12.372;2023-04-03T22:36:22;2.95;;;1.45;;
36371;SDS011;22398;51.346;12.372;2023-04-03T22:41:26;8.00;;;1.00;;
36371;SDS011;22398;51.346;12.372;2023-04-03T22:46:30;2.88;;;1.15;;
36371;SDS011;22398;51.346;12.372;2023-04-03T22:51:35;2.88;;;1.02;;
36371;SDS011;22398;51.346;12.372;2023-04-03T22:56:38;4.75;;;1.30;;
36371;SDS011;22398;51.346;12.372;2023-04-03T23:01:42;9.75;;;1.10;;
36371;SDS011;22398;51.346;12.372;2023-04-03T23:06:47;4.18;;;1.10;;
36371;SDS011;22398;51.346;12.372;2023-04-03T23:11:51;3.37;;;0.90;;
36371;SDS011;22398;51.346;12.372;2023-04-03T23:16:54;2.45;;;1.10;;
36371;SDS011;22398;51.346;12.372;2023-04-03T23:21:59;3.30;;;0.80;;
36371;SDS011;22398;51.346;12.372;2023-04-03T23:27:03;2.45;;;1.00;;
36371;SDS011;22398;51.346;12.372;2023-04-03T23:32:07;3.08;;;1.10;;
36371;SDS011;22398;51.346;12.372;2023-04-03T23:37:12;2.47;;;1.02;;
36371;SDS011;22398;51.346;12.372;2023-04-03T23:42:16;1.67;;;0.60;;
36371;SDS011;22398;51.346;12.372;2023-04-03T23:47:19;6.97;;;1.10;;
36371;SDS011;22398;51.346;12.372;2023-04-03T23:52:25;4.22;;;0.77;;
